createdAt,value
2023-05-20T00:00:34.072Z,16.13
2023-05-20T00:03:01.248Z,16.98
2023-05-20T00:05:27.932Z,16.77
2023-05-20T00:07:54.523Z,19.95
2023-05-20T00:10:23.336Z,23.10
2023-05-20T00:12:49.823Z,19.52
2023-05-20T00:15:16.487Z,17.63
2023-05-20T00:17:43.089Z,17.70
2023-05-20T00:20:09.772Z,24.23
2023-05-20T00:22:36.421Z,24.20
2023-05-20T00:25:03.181Z,20.55
2023-05-20T00:27:29.837Z,21.13
2023-05-20T00:29:56.340Z,19.73
2023-05-20T00:32:23.032Z,23.08
2023-05-20T00:34:56.326Z,22.58
2023-05-20T00:37:23.636Z,18.65
2023-05-20T00:39:50.290Z,24.67
2023-05-20T00:42:23.803Z,20.08
2023-05-20T00:44:53.922Z,20.25
2023-05-20T00:47:23.471Z,22.02
2023-05-20T00:49:51.114Z,22.05
2023-05-20T00:52:18.956Z,21.33
2023-05-20T00:54:48.752Z,24.60
2023-05-20T00:57:15.470Z,26.35
2023-05-20T00:59:43.495Z,22.80
2023-05-20T01:02:11.485Z,26.27
2023-05-20T01:04:38.475Z,24.67
2023-05-20T01:07:06.622Z,25.42
2023-05-20T01:09:33.523Z,27.15
2023-05-20T01:12:03.959Z,25.85
2023-05-20T01:14:32.648Z,24.52
2023-05-20T01:17:01.331Z,24.65
2023-05-20T01:19:46.549Z,27.02
2023-05-20T01:22:13.969Z,28.38
2023-05-20T01:24:48.425Z,27.45
2023-05-20T01:27:15.199Z,27.10
2023-05-20T01:29:42.935Z,32.97
2023-05-20T01:32:29.807Z,23.30
2023-05-20T01:34:57.064Z,31.02
2023-05-20T01:37:25.310Z,27.35
2023-05-20T01:39:52.457Z,28.10
2023-05-20T01:42:19.545Z,28.88
2023-05-20T01:44:46.449Z,31.48
2023-05-20T01:47:13.288Z,26.83
2023-05-20T01:49:41.595Z,30.73
2023-05-20T01:52:10.201Z,33.17
2023-05-20T01:54:37.159Z,30.40
2023-05-20T01:57:03.807Z,30.70
2023-05-20T01:59:30.476Z,30.98
2023-05-20T02:01:57.307Z,36.38
2023-05-20T02:04:23.877Z,37.53
2023-05-20T02:06:50.739Z,38.40
2023-05-20T02:09:18.405Z,31.17
2023-05-20T02:11:44.860Z,34.88
2023-05-20T02:14:11.608Z,34.03
2023-05-20T02:16:38.201Z,33.75
2023-05-20T02:19:04.764Z,33.17
2023-05-20T02:21:31.627Z,36.97
2023-05-20T02:23:58.381Z,38.35
2023-05-20T02:26:26.431Z,38.83
2023-05-20T02:28:52.938Z,37.13
2023-05-20T02:31:21.561Z,40.38
2023-05-20T02:33:48.078Z,39.50
2023-05-20T02:36:15.216Z,37.28
2023-05-20T02:38:41.864Z,42.33
2023-05-20T02:41:13.453Z,44.13
2023-05-20T02:43:42.161Z,47.70
2023-05-20T02:46:09.097Z,45.13
2023-05-20T02:48:35.666Z,43.15
2023-05-20T02:51:02.206Z,47.88
2023-05-20T02:53:28.785Z,59.90
2023-05-20T02:55:55.502Z,47.75
2023-05-20T02:58:26.269Z,53.90
2023-05-20T03:00:53.331Z,48.17
2023-05-20T03:03:20.423Z,48.50
2023-05-20T03:05:47.078Z,50.13
2023-05-20T03:08:13.592Z,47.55
2023-05-20T03:10:40.381Z,46.65
2023-05-20T03:13:09.064Z,46.92
2023-05-20T03:15:40.404Z,49.08
2023-05-20T03:18:08.459Z,48.28
2023-05-20T03:20:38.889Z,53.35
2023-05-20T03:23:07.389Z,50.60
2023-05-20T03:25:36.671Z,47.50
2023-05-20T03:28:04.073Z,46.22
2023-05-20T03:30:31.249Z,49.65
2023-05-20T03:32:58.638Z,50.20
2023-05-20T03:35:27.791Z,50.08
2023-05-20T03:38:05.832Z,48.03
2023-05-20T03:40:34.417Z,45.67
2023-05-20T03:43:01.088Z,52.25
2023-05-20T03:45:27.694Z,48.85
2023-05-20T03:48:04.650Z,51.53
2023-05-20T03:50:33.405Z,47.03
2023-05-20T03:53:00.813Z,49.03
2023-05-20T03:55:32.574Z,47.15
2023-05-20T03:58:01.262Z,50.58
2023-05-20T04:00:27.918Z,46.05
2023-05-20T04:02:55.590Z,45.38
2023-05-20T04:05:23.448Z,49.97
2023-05-20T04:07:50.709Z,45.88
2023-05-20T04:10:19.932Z,48.22
2023-05-20T04:12:47.064Z,47.78
2023-05-20T04:15:14.971Z,47.03
2023-05-20T04:17:50.460Z,47.92
2023-05-20T04:20:20.015Z,47.75
2023-05-20T04:22:48.290Z,45.67
2023-05-20T04:25:15.001Z,46.67
2023-05-20T04:27:41.587Z,46.72
2023-05-20T04:30:08.331Z,38.03
2023-05-20T04:32:39.146Z,43.78
2023-05-20T04:35:11.405Z,44.85
2023-05-20T04:37:40.319Z,42.40
2023-05-20T04:40:07.202Z,46.42
2023-05-20T04:42:33.861Z,43.25
2023-05-20T04:45:05.752Z,45.92
2023-05-20T04:47:38.641Z,44.65
2023-05-20T04:50:12.541Z,43.40
2023-05-20T04:52:43.001Z,45.40
2023-05-20T04:55:10.578Z,42.55
2023-05-20T04:57:40.034Z,46.15
2023-05-20T05:00:07.827Z,42.25
2023-05-20T05:02:34.992Z,46.63
2023-05-20T05:05:02.559Z,50.00
2023-05-20T05:07:29.270Z,50.53
2023-05-20T05:09:57.020Z,49.17
2023-05-20T05:12:23.731Z,50.40
2023-05-20T05:14:50.646Z,50.97
2023-05-20T05:17:17.280Z,49.85
2023-05-20T05:19:44.393Z,51.30
2023-05-20T05:22:11.134Z,49.03
2023-05-20T05:24:39.020Z,49.08
2023-05-20T05:27:05.776Z,46.63
2023-05-20T05:29:32.331Z,55.90
2023-05-20T05:31:58.898Z,44.95
2023-05-20T05:34:25.395Z,46.55
2023-05-20T05:36:51.992Z,45.13
2023-05-20T05:39:18.554Z,48.13
2023-05-20T05:41:45.129Z,46.83
2023-05-20T05:44:12.570Z,41.78
2023-05-20T05:46:39.179Z,44.05
2023-05-20T05:49:06.093Z,46.08
2023-05-20T05:51:33.210Z,41.80
2023-05-20T05:53:59.831Z,43.28
2023-05-20T05:56:26.467Z,46.70
2023-05-20T05:58:53.299Z,42.78
2023-05-20T06:01:19.975Z,43.67
2023-05-20T06:03:46.759Z,47.33
2023-05-20T06:06:13.494Z,46.60
2023-05-20T06:08:40.103Z,42.72
2023-05-20T06:11:07.513Z,39.53
2023-05-20T06:13:34.100Z,42.35
2023-05-20T06:16:00.694Z,40.35
2023-05-20T06:18:27.487Z,40.78
2023-05-20T06:20:57.881Z,35.72
2023-05-20T06:23:25.159Z,41.13
2023-05-20T06:25:59.783Z,39.30
2023-05-20T06:28:26.919Z,43.35
2023-05-20T06:30:56.844Z,38.33
2023-05-20T06:33:31.356Z,36.40
2023-05-20T06:36:04.175Z,43.50
2023-05-20T06:38:30.746Z,40.47
2023-05-20T06:41:00.326Z,41.72
2023-05-20T06:43:27.380Z,43.47
2023-05-20T06:46:03.573Z,43.22
2023-05-20T06:48:45.076Z,41.47
2023-05-20T06:51:11.709Z,44.08
2023-05-20T06:53:39.172Z,39.67
2023-05-20T06:56:05.934Z,39.70
2023-05-20T06:58:32.888Z,38.35
2023-05-20T07:00:59.602Z,45.13
2023-05-20T07:03:26.846Z,43.67
2023-05-20T07:05:53.492Z,41.78
2023-05-20T07:08:21.003Z,36.13
2023-05-20T07:10:47.908Z,39.70
2023-05-20T07:13:17.840Z,36.58
2023-05-20T07:15:48.024Z,36.63
2023-05-20T07:18:16.104Z,37.42
2023-05-20T07:20:44.378Z,35.10
2023-05-20T07:23:21.184Z,39.30
2023-05-20T07:25:53.412Z,35.47
2023-05-20T07:28:20.495Z,35.95
2023-05-20T07:30:50.104Z,32.10
2023-05-20T07:33:39.407Z,33.70
2023-05-20T07:36:06.171Z,33.20
2023-05-20T07:38:33.297Z,30.92
2023-05-20T07:41:03.581Z,37.08
2023-05-20T07:43:31.332Z,31.60
2023-05-20T07:45:58.538Z,32.13
2023-05-20T07:48:25.098Z,33.72
2023-05-20T07:50:52.545Z,30.27
2023-05-20T07:53:20.053Z,28.27
2023-05-20T07:55:46.780Z,31.45
2023-05-20T07:58:14.277Z,29.58
2023-05-20T08:00:41.040Z,29.67
2023-05-20T08:03:08.743Z,31.52
2023-05-20T08:06:02.666Z,32.17
2023-05-20T08:08:30.880Z,32.53
2023-05-20T08:11:04.213Z,30.58
2023-05-20T08:13:31.686Z,30.73
2023-05-20T08:15:59.456Z,29.75
2023-05-20T08:18:27.530Z,27.88
2023-05-20T08:20:54.111Z,27.45
2023-05-20T08:23:20.714Z,23.60
2023-05-20T08:25:48.417Z,32.83
2023-05-20T08:28:16.455Z,28.77
2023-05-20T08:30:43.494Z,27.33
2023-05-20T08:33:10.239Z,28.23
2023-05-20T08:35:39.448Z,25.95
2023-05-20T08:38:06.882Z,30.15
2023-05-20T08:40:36.614Z,25.25
2023-05-20T08:43:03.431Z,27.65
2023-05-20T08:45:31.791Z,25.13
2023-05-20T08:48:04.960Z,25.50
2023-05-20T08:50:31.696Z,27.92
2023-05-20T08:52:59.285Z,27.42
2023-05-20T08:56:00.753Z,29.58
2023-05-20T08:58:28.312Z,29.30
2023-05-20T09:00:54.979Z,27.35
2023-05-20T09:03:22.136Z,28.90
2023-05-20T09:05:48.729Z,27.85
2023-05-20T09:08:18.463Z,26.20
2023-05-20T09:10:44.942Z,27.40
2023-05-20T09:13:11.625Z,26.73
2023-05-20T09:15:39.049Z,28.63
2023-05-20T09:18:07.267Z,24.27
2023-05-20T09:20:34.701Z,26.80
2023-05-20T09:23:02.229Z,26.38
2023-05-20T09:25:32.578Z,25.45
2023-05-20T09:27:59.276Z,22.17
2023-05-20T09:30:25.948Z,25.02
2023-05-20T09:32:53.123Z,26.98
2023-05-20T09:35:19.719Z,25.05
2023-05-20T09:37:47.399Z,26.20
2023-05-20T09:40:15.289Z,25.45
2023-05-20T09:42:50.172Z,28.50
2023-05-20T09:45:16.813Z,22.77
2023-05-20T09:47:46.162Z,24.50
2023-05-20T09:50:13.088Z,22.13
2023-05-20T09:52:39.836Z,25.60
2023-05-20T09:55:06.613Z,23.30
2023-05-20T09:57:34.281Z,25.77
2023-05-20T10:00:01.732Z,23.90
2023-05-20T10:02:39.243Z,22.05
2023-05-20T10:05:07.671Z,23.20
2023-05-20T10:07:41.882Z,25.95
2023-05-20T10:10:28.106Z,22.23
2023-05-20T10:13:09.660Z,25.52
2023-05-20T10:15:44.724Z,25.65
2023-05-20T10:18:11.344Z,27.20
2023-05-20T10:20:58.217Z,26.35
2023-05-20T10:23:27.637Z,28.77
2023-05-20T10:25:55.058Z,26.08
2023-05-20T10:28:32.418Z,24.05
2023-05-20T10:30:59.508Z,20.30
2023-05-20T10:33:29.340Z,22.00
2023-05-20T10:35:59.436Z,24.30
2023-05-20T10:38:26.291Z,24.75
2023-05-20T10:40:53.195Z,20.95
2023-05-20T10:43:26.627Z,23.13
2023-05-20T10:45:54.774Z,26.05
2023-05-20T10:48:21.923Z,24.92
2023-05-20T10:50:48.945Z,21.83
2023-05-20T10:53:29.320Z,29.40
2023-05-20T10:55:59.864Z,29.60
2023-05-20T10:58:26.666Z,26.27
2023-05-20T11:00:54.336Z,23.10
2023-05-20T11:03:24.313Z,25.13
2023-05-20T11:05:51.134Z,25.27
2023-05-20T11:08:28.428Z,24.35
2023-05-20T11:10:59.173Z,21.80
2023-05-20T11:13:26.802Z,21.05
2023-05-20T11:15:53.804Z,24.15
2023-05-20T11:18:20.526Z,20.90
2023-05-20T11:20:47.271Z,23.00
2023-05-20T11:23:14.556Z,20.35
2023-05-20T11:25:41.332Z,24.75
2023-05-20T11:28:14.670Z,21.00
2023-05-20T11:30:42.597Z,19.08
2023-05-20T11:33:11.846Z,19.90
2023-05-20T11:35:44.895Z,20.17
2023-05-20T11:38:11.839Z,19.88
2023-05-20T11:40:50.555Z,21.45
2023-05-20T11:43:18.602Z,24.83
2023-05-20T11:45:46.142Z,17.75
2023-05-20T11:48:13.101Z,14.20
2023-05-20T11:50:40.955Z,17.45
2023-05-20T11:53:25.641Z,22.50
2023-05-20T11:55:55.904Z,14.30
2023-05-20T11:58:23.252Z,15.80
2023-05-20T12:00:53.152Z,18.50
2023-05-20T12:03:26.112Z,21.27
2023-05-20T12:05:52.877Z,17.58
2023-05-20T12:08:19.414Z,19.92
2023-05-20T12:10:46.056Z,15.95
2023-05-20T12:13:13.628Z,14.77
2023-05-20T12:15:40.616Z,15.07
2023-05-20T12:18:07.530Z,14.90
2023-05-20T12:20:34.685Z,16.52
2023-05-20T12:23:01.516Z,15.13
2023-05-20T12:25:28.387Z,12.50
2023-05-20T12:27:55.408Z,15.30
2023-05-20T12:30:22.755Z,12.57
2023-05-20T12:32:51.017Z,17.20
2023-05-20T12:35:17.904Z,16.63
2023-05-20T12:37:44.565Z,12.75
2023-05-20T12:40:12.675Z,22.55
2023-05-20T12:42:39.922Z,12.40
2023-05-20T12:45:07.652Z,14.63
2023-05-20T12:47:34.436Z,15.68
2023-05-20T12:50:01.262Z,12.95
2023-05-20T12:52:31.079Z,15.85
2023-05-20T12:54:57.710Z,12.63
2023-05-20T12:57:24.572Z,15.15
2023-05-20T12:59:51.296Z,17.70
2023-05-20T13:02:17.826Z,17.00
2023-05-20T13:04:44.433Z,18.33
2023-05-20T13:07:11.162Z,19.60
2023-05-20T13:09:37.961Z,19.45
2023-05-20T13:12:04.685Z,18.85
2023-05-20T13:14:31.964Z,18.90
2023-05-20T13:16:58.604Z,18.95
2023-05-20T13:19:26.612Z,23.40
2023-05-20T13:21:54.676Z,21.17
2023-05-20T13:24:21.555Z,17.88
2023-05-20T13:26:48.173Z,15.57
2023-05-20T13:29:14.754Z,19.23
2023-05-20T13:31:43.672Z,21.38
2023-05-20T13:34:10.260Z,15.10
2023-05-20T13:36:37.068Z,15.60
2023-05-20T13:39:03.632Z,15.80
2023-05-20T13:41:30.805Z,16.50
2023-05-20T13:43:57.316Z,12.63
2023-05-20T13:46:24.044Z,16.65
2023-05-20T13:48:50.743Z,18.10
2023-05-20T13:51:18.427Z,14.43
2023-05-20T13:53:45.045Z,14.95
2023-05-20T13:56:11.674Z,19.15
2023-05-20T13:58:38.315Z,15.43
2023-05-20T14:01:05.521Z,14.48
2023-05-20T14:03:36.148Z,14.82
2023-05-20T14:06:02.758Z,16.20
2023-05-20T14:08:29.610Z,19.60
2023-05-20T14:10:56.156Z,16.70
2023-05-20T14:13:23.002Z,15.82
2023-05-20T14:15:54.759Z,14.57
2023-05-20T14:18:21.573Z,12.05
2023-05-20T14:20:48.155Z,14.43
2023-05-20T14:23:15.100Z,16.27
2023-05-20T14:25:41.596Z,18.83
2023-05-20T14:28:08.209Z,18.27
2023-05-20T14:30:35.102Z,16.08
2023-05-20T14:33:01.793Z,18.35
2023-05-20T14:35:28.532Z,22.38
2023-05-20T14:37:55.107Z,14.07
2023-05-20T14:40:21.686Z,14.70
2023-05-20T14:42:48.197Z,16.55
2023-05-20T14:45:14.835Z,16.55
2023-05-20T14:47:41.501Z,16.38
2023-05-20T14:50:08.236Z,22.13
2023-05-20T14:52:34.860Z,13.73
2023-05-20T14:55:01.514Z,14.73
2023-05-20T14:57:28.123Z,14.57
2023-05-20T14:59:54.777Z,17.00
2023-05-20T15:02:21.615Z,15.75
2023-05-20T15:04:48.727Z,17.60
2023-05-20T15:07:15.498Z,17.25
2023-05-20T15:09:42.617Z,16.75
2023-05-20T15:12:09.837Z,16.42
2023-05-20T15:14:36.692Z,18.65
2023-05-20T15:17:04.141Z,19.27
2023-05-20T15:19:33.818Z,19.85
2023-05-20T15:22:00.818Z,20.52
2023-05-20T15:24:27.477Z,15.88
2023-05-20T15:26:55.006Z,19.23
2023-05-20T15:29:21.878Z,19.90
2023-05-20T15:31:49.151Z,18.05
2023-05-20T15:34:15.690Z,16.95
2023-05-20T15:36:42.298Z,17.65
2023-05-20T15:39:09.320Z,20.02
2023-05-20T15:41:39.894Z,15.77
2023-05-20T15:44:07.176Z,16.23
2023-05-20T15:46:33.753Z,20.10
2023-05-20T15:49:00.460Z,17.02
2023-05-20T15:51:26.939Z,20.52
2023-05-20T15:53:53.582Z,15.38
2023-05-20T15:56:20.251Z,15.85
2023-05-20T15:58:46.770Z,17.58
2023-05-20T16:01:13.390Z,17.83
2023-05-20T16:03:40.206Z,20.02
2023-05-20T16:06:07.457Z,20.17
2023-05-20T16:08:36.281Z,17.35
2023-05-20T16:11:02.880Z,20.42
2023-05-20T16:13:29.749Z,17.55
2023-05-20T16:15:58.216Z,20.65
2023-05-20T16:18:28.482Z,20.17
2023-05-20T16:20:55.477Z,29.15
2023-05-20T16:23:22.204Z,17.38
2023-05-20T16:25:48.785Z,17.70
2023-05-20T16:28:15.248Z,19.35
2023-05-20T16:30:41.811Z,21.25
2023-05-20T16:33:08.441Z,20.15
2023-05-20T16:35:35.061Z,23.10
2023-05-20T16:38:01.601Z,24.52
2023-05-20T16:40:28.167Z,20.33
2023-05-20T16:42:54.799Z,18.08
2023-05-20T16:45:21.602Z,19.45
2023-05-20T16:47:48.236Z,23.52
2023-05-20T16:50:14.840Z,19.98
2023-05-20T16:52:41.936Z,21.63
2023-05-20T16:55:08.865Z,22.00
2023-05-20T16:57:35.586Z,20.90
2023-05-20T17:00:07.107Z,19.15
2023-05-20T17:02:34.895Z,19.95
2023-05-20T17:05:07.634Z,21.38
2023-05-20T17:07:38.307Z,19.17
2023-05-20T17:10:08.246Z,23.05
2023-05-20T17:12:35.002Z,21.83
2023-05-20T17:15:01.737Z,22.20
2023-05-20T17:17:28.985Z,21.00
2023-05-20T17:19:56.197Z,22.55
2023-05-20T17:22:22.799Z,24.15
2023-05-20T17:24:49.376Z,21.05
2023-05-20T17:27:16.231Z,21.67
2023-05-20T17:29:45.349Z,23.45
2023-05-20T17:32:12.117Z,22.15
2023-05-20T17:34:41.721Z,26.45
2023-05-20T17:37:10.844Z,21.38
2023-05-20T17:39:37.683Z,24.42
2023-05-20T17:42:04.270Z,25.88
2023-05-20T17:44:30.838Z,23.52
2023-05-20T17:46:57.343Z,30.75
2023-05-20T17:49:24.111Z,27.10
2023-05-20T17:51:53.481Z,25.58
2023-05-20T17:54:20.666Z,21.13
2023-05-20T17:56:57.194Z,23.00
2023-05-20T17:59:32.540Z,22.52
2023-05-20T18:01:59.751Z,24.83
2023-05-20T18:04:27.843Z,22.58
2023-05-20T18:06:57.433Z,25.40
2023-05-20T18:09:23.978Z,23.95
2023-05-20T18:11:50.659Z,23.75
2023-05-20T18:14:18.896Z,24.75
2023-05-20T18:16:45.575Z,23.98
2023-05-20T18:19:12.247Z,25.13
2023-05-20T18:21:38.907Z,25.98
2023-05-20T18:24:05.568Z,30.75
2023-05-20T18:26:32.477Z,26.88
2023-05-20T18:28:59.056Z,28.27
2023-05-20T18:31:25.617Z,29.40
2023-05-20T18:33:52.333Z,27.67
2023-05-20T18:36:19.402Z,25.65
2023-05-20T18:38:46.453Z,26.00
2023-05-20T18:41:12.996Z,28.63
2023-05-20T18:43:41.979Z,25.85
2023-05-20T18:46:08.580Z,28.23
2023-05-20T18:48:35.511Z,29.30
2023-05-20T18:51:02.006Z,27.27
2023-05-20T18:53:28.779Z,30.80
2023-05-20T18:55:57.097Z,27.75
2023-05-20T18:58:23.672Z,26.42
2023-05-20T19:00:50.256Z,30.63
2023-05-20T19:03:17.128Z,26.75
2023-05-20T19:05:43.744Z,31.70
2023-05-20T19:08:10.518Z,28.45
2023-05-20T19:10:37.016Z,30.63
2023-05-20T19:13:03.753Z,29.42
2023-05-20T19:15:31.242Z,29.42
2023-05-20T19:17:57.832Z,32.25
2023-05-20T19:20:24.453Z,31.05
2023-05-20T19:22:52.319Z,31.75
2023-05-20T19:25:19.323Z,29.83
2023-05-20T19:27:45.932Z,30.35
2023-05-20T19:30:12.613Z,33.53
2023-05-20T19:32:39.581Z,36.55
2023-05-20T19:35:06.995Z,34.10
2023-05-20T19:37:33.725Z,34.45
2023-05-20T19:40:01.033Z,44.63
2023-05-20T19:42:27.556Z,37.67
2023-05-20T19:44:54.198Z,34.75
2023-05-20T19:47:21.275Z,42.78
2023-05-20T19:49:48.101Z,37.65
2023-05-20T19:52:14.749Z,35.55
2023-05-20T19:54:42.853Z,39.88
2023-05-20T19:57:09.764Z,36.90
2023-05-20T19:59:37.920Z,72.00
2023-05-20T20:02:05.839Z,49.15
2023-05-20T20:04:32.602Z,45.65
2023-05-20T20:06:59.191Z,37.95
2023-05-20T20:09:25.793Z,34.92
2023-05-20T20:11:52.357Z,35.17
2023-05-20T20:14:19.989Z,31.20
2023-05-20T20:16:49.156Z,35.72
2023-05-20T20:19:22.974Z,34.20
2023-05-20T20:21:53.058Z,33.40
2023-05-20T20:24:20.075Z,38.17
2023-05-20T20:26:49.521Z,32.55
2023-05-20T20:29:16.035Z,32.70
2023-05-20T20:31:42.597Z,28.55
2023-05-20T20:34:09.186Z,33.72
2023-05-20T20:36:35.688Z,32.30
2023-05-20T20:39:05.312Z,36.05
2023-05-20T20:41:32.351Z,34.20
2023-05-20T20:43:59.655Z,38.80
2023-05-20T20:46:27.649Z,30.35
2023-05-20T20:48:54.325Z,33.22
2023-05-20T20:51:21.211Z,32.35
2023-05-20T20:53:48.705Z,33.90
2023-05-20T20:56:15.940Z,35.90
2023-05-20T20:58:42.383Z,33.17
2023-05-20T21:01:10.111Z,32.40
2023-05-20T21:03:40.380Z,34.13
2023-05-20T21:06:07.778Z,34.60
2023-05-20T21:08:34.701Z,35.42
2023-05-20T21:11:01.485Z,35.40
2023-05-20T21:13:30.928Z,38.58
2023-05-20T21:15:57.547Z,36.92
2023-05-20T21:18:24.276Z,36.45
2023-05-20T21:20:51.599Z,39.28
2023-05-20T21:23:18.477Z,34.25
2023-05-20T21:25:45.170Z,36.47
2023-05-20T21:28:12.021Z,35.85
2023-05-20T21:30:38.666Z,35.60
2023-05-20T21:33:05.447Z,40.53
2023-05-20T21:35:31.984Z,39.40
2023-05-20T21:37:58.688Z,44.17
2023-05-20T21:40:25.203Z,42.08
2023-05-20T21:42:52.179Z,39.22
2023-05-20T21:45:18.862Z,34.70
2023-05-20T21:47:46.493Z,37.00
2023-05-20T21:50:13.247Z,35.53
2023-05-20T21:52:40.023Z,37.67
2023-05-20T21:55:08.385Z,36.38
2023-05-20T21:57:35.081Z,33.15
2023-05-20T22:00:01.659Z,41.72
2023-05-20T22:02:28.221Z,40.95
2023-05-20T22:04:55.374Z,40.00
2023-05-20T22:07:21.930Z,35.88
2023-05-20T22:09:48.420Z,34.88
2023-05-20T22:12:15.514Z,35.90
2023-05-20T22:14:42.210Z,33.50
2023-05-20T22:17:08.776Z,34.70
2023-05-20T22:19:35.284Z,35.72
2023-05-20T22:22:01.789Z,36.90
2023-05-20T22:24:28.398Z,41.50
2023-05-20T22:26:54.819Z,38.60
2023-05-20T22:29:21.823Z,38.72
2023-05-20T22:31:48.394Z,37.03
2023-05-20T22:34:15.210Z,36.60
2023-05-20T22:36:41.715Z,36.08
2023-05-20T22:39:08.223Z,39.90
2023-05-20T22:41:34.736Z,34.55
2023-05-20T22:44:01.309Z,32.92
2023-05-20T22:46:28.098Z,37.88
2023-05-20T22:48:55.295Z,31.67
2023-05-20T22:51:22.008Z,34.13
2023-05-20T22:53:48.711Z,40.08
2023-05-20T22:56:15.442Z,35.78
2023-05-20T22:58:42.608Z,37.13
2023-05-20T23:01:09.538Z,37.30
2023-05-20T23:03:36.165Z,35.33
2023-05-20T23:06:02.684Z,38.38
2023-05-20T23:08:29.269Z,34.83
2023-05-20T23:10:56.014Z,38.83
2023-05-20T23:13:22.554Z,33.20
2023-05-20T23:15:49.222Z,36.22
2023-05-20T23:18:16.146Z,39.17
2023-05-20T23:20:42.710Z,38.58
2023-05-20T23:23:11.554Z,38.25
2023-05-20T23:25:38.658Z,36.13
2023-05-20T23:28:05.958Z,41.10
2023-05-20T23:30:32.459Z,42.58
2023-05-20T23:32:59.521Z,46.55
2023-05-20T23:35:26.223Z,43.40
2023-05-20T23:37:52.888Z,44.17
2023-05-20T23:40:19.339Z,45.53
2023-05-20T23:42:45.978Z,44.05
2023-05-20T23:45:12.918Z,44.13
2023-05-20T23:47:39.747Z,48.17
2023-05-20T23:50:06.504Z,47.72
2023-05-20T23:52:33.005Z,46.50
2023-05-20T23:55:00.333Z,44.80
2023-05-20T23:57:26.944Z,46.83
2023-05-20T23:59:53.456Z,43.08
